createdAt,value
2017-12-05T00:06:09.398Z,3.17
2017-12-05T00:26:46.512Z,3.11
2017-12-05T00:47:23.628Z,3.07
2017-12-05T01:07:59.830Z,3.11
2017-12-05T01:28:39.089Z,2.99
2017-12-05T01:49:12.731Z,2.92
2017-12-05T02:09:48.710Z,2.88
2017-12-05T02:30:24.247Z,3.08
2017-12-05T02:50:57.423Z,3.27
2017-12-05T03:11:33.654Z,3.24
2017-12-05T03:32:07.648Z,3.13
2017-12-05T03:52:41.690Z,2.93
2017-12-05T04:13:19.108Z,2.64
2017-12-05T04:33:52.554Z,2.74
2017-12-05T04:54:29.000Z,2.55
2017-12-05T05:15:04.620Z,2.29
2017-12-05T05:35:39.893Z,2.61
2017-12-05T05:56:15.160Z,2.99
2017-12-05T06:16:52.742Z,3.36
2017-12-05T06:37:26.964Z,3.44
2017-12-05T06:58:04.216Z,3.56
2017-12-05T07:18:35.023Z,3.64
2017-12-05T07:39:06.298Z,3.80
2017-12-05T07:59:38.498Z,3.99
2017-12-05T08:20:13.772Z,4.23
2017-12-05T08:40:46.256Z,4.54
2017-12-05T09:01:21.242Z,5.01
2017-12-05T09:22:02.744Z,5.38
2017-12-05T09:42:37.972Z,5.59
2017-12-05T10:03:08.899Z,5.75
2017-12-05T10:23:44.443Z,5.68
2017-12-05T10:44:16.369Z,5.65
2017-12-05T11:04:51.640Z,5.70
2017-12-05T11:25:25.685Z,5.56
2017-12-05T11:45:58.244Z,5.57
2017-12-05T12:06:32.234Z,5.65
2017-12-05T12:27:04.432Z,5.61
2017-12-05T12:47:39.705Z,5.67
2017-12-05T13:08:15.903Z,5.53
2017-12-05T13:28:49.343Z,5.39
2017-12-05T13:49:25.215Z,5.53
2017-12-05T14:09:59.558Z,5.43
2017-12-05T14:30:34.834Z,5.34
2017-12-05T14:51:07.961Z,5.29
2017-12-05T15:11:48.143Z,5.21
2017-12-05T15:32:22.491Z,5.37
2017-12-05T15:52:56.977Z,5.30
2017-12-05T16:13:31.806Z,5.28
2017-12-05T16:34:10.476Z,5.24
2017-12-05T16:54:43.273Z,5.28
2017-12-05T17:15:19.773Z,5.23
2017-12-05T17:35:55.166Z,5.25
2017-12-05T18:14:31.991Z,5.17
2017-12-05T18:35:06.032Z,5.22
2017-12-05T18:55:41.300Z,5.22
2017-12-05T19:16:14.423Z,5.25
2017-12-05T19:36:47.970Z,5.26
2017-12-05T19:57:20.969Z,5.15
2017-12-05T20:17:54.091Z,5.21
2017-12-05T20:38:30.631Z,5.20
2017-12-05T20:59:07.711Z,5.16
2017-12-05T21:19:47.899Z,5.16
2017-12-05T21:40:29.009Z,5.13
2017-12-05T22:01:05.509Z,5.17
2017-12-05T22:21:39.906Z,5.10
2017-12-05T22:42:13.902Z,5.21
2017-12-05T23:02:49.193Z,5.22
2017-12-05T23:23:27.208Z,5.17
2017-12-05T23:44:04.629Z,5.31
